sensor_id;sensor_type;location;lat;lon;timestamp;P1;durP1;ratioP1;P2;durP2;ratioP2
19599;SDS011;9947;57.722;12.012;2023-01-01T00:01:25;120.73;;;51.13;;
19599;SDS011;9947;57.722;12.012;2023-01-01T00:04:05;107.13;;;48.07;;
19599;SDS011;9947;57.722;12.012;2023-01-01T00:06:39;102.53;;;44.97;;
19599;SDS011;9947;57.722;12.012;2023-01-01T00:09:13;97.27;;;42.53;;
19599;SDS011;9947;57.722;12.012;2023-01-01T00:11:57;96.33;;;40.87;;
19599;SDS011;9947;57.722;12.012;2023-01-01T00:14:31;84.00;;;36.10;;
19599;SDS011;9947;57.722;12.012;2023-01-01T00:16:59;81.87;;;34.97;;
19599;SDS011;9947;57.722;12.012;2023-01-01T00:19:33;72.33;;;31.47;;
19599;SDS011;9947;57.722;12.012;2023-01-01T00:22:07;67.33;;;30.20;;
19599;SDS011;9947;57.722;12.012;2023-01-01T00:24:40;77.70;;;32.20;;
19599;SDS011;9947;57.722;12.012;2023-01-01T00:27:14;68.73;;;28.77;;
19599;SDS011;9947;57.722;12.012;2023-01-01T00:29:47;59.90;;;26.40;;
19599;SDS011;9947;57.722;12.012;2023-01-01T00:32:14;62.57;;;25.90;;
19599;SDS011;9947;57.722;12.012;2023-01-01T00:34:48;61.60;;;25.50;;
19599;SDS011;9947;57.722;12.012;2023-01-01T00:37:22;54.87;;;23.07;;
19599;SDS011;9947;57.722;12.012;2023-01-01T00:40:02;59.57;;;23.43;;
19599;SDS011;9947;57.722;12.012;2023-01-01T00:42:29;49.00;;;21.63;;
19599;SDS011;9947;57.722;12.012;2023-01-01T00:45:05;45.43;;;21.27;;
19599;SDS011;9947;57.722;12.012;2023-01-01T00:47:32;41.10;;;19.13;;
19599;SDS011;9947;57.722;12.012;2023-01-01T00:50:07;39.60;;;17.83;;
19599;SDS011;9947;57.722;12.012;2023-01-01T00:52:34;39.10;;;16.30;;
19599;SDS011;9947;57.722;12.012;2023-01-01T00:55:11;46.97;;;18.07;;
19599;SDS011;9947;57.722;12.012;2023-01-01T00:57:51;43.27;;;16.33;;
19599;SDS011;9947;57.722;12.012;2023-01-01T01:00:24;27.83;;;12.57;;
19599;SDS011;9947;57.722;12.012;2023-01-01T01:02:51;33.53;;;13.83;;
19599;SDS011;9947;57.722;12.012;2023-01-01T01:05:25;30.50;;;12.23;;
19599;SDS011;9947;57.722;12.012;2023-01-01T01:08:01;30.53;;;12.13;;
19599;SDS011;9947;57.722;12.012;2023-01-01T01:10:34;28.07;;;11.87;;
19599;SDS011;9947;57.722;12.012;2023-01-01T01:13:01;29.57;;;11.60;;
19599;SDS011;9947;57.722;12.012;2023-01-01T01:15:34;28.43;;;11.77;;
19599;SDS011;9947;57.722;12.012;2023-01-01T01:18:15;24.33;;;10.57;;
19599;SDS011;9947;57.722;12.012;2023-01-01T01:20:57;30.20;;;11.10;;
19599;SDS011;9947;57.722;12.012;2023-01-01T01:23:30;32.97;;;11.43;;
19599;SDS011;9947;57.722;12.012;2023-01-01T01:26:05;29.00;;;10.97;;
19599;SDS011;9947;57.722;12.012;2023-01-01T01:28:40;28.43;;;10.47;;
19599;SDS011;9947;57.722;12.012;2023-01-01T01:31:07;32.10;;;10.33;;
19599;SDS011;9947;57.722;12.012;2023-01-01T01:33:41;30.13;;;10.57;;
19599;SDS011;9947;57.722;12.012;2023-01-01T01:36:10;25.20;;;10.43;;
19599;SDS011;9947;57.722;12.012;2023-01-01T01:38:45;19.67;;;9.27;;
19599;SDS011;9947;57.722;12.012;2023-01-01T01:41:17;24.33;;;9.27;;
19599;SDS011;9947;57.722;12.012;2023-01-01T01:43:55;24.67;;;9.40;;
19599;SDS011;9947;57.722;12.012;2023-01-01T01:46:33;21.80;;;8.67;;
19599;SDS011;9947;57.722;12.012;2023-01-01T01:49:02;24.07;;;8.43;;
19599;SDS011;9947;57.722;12.012;2023-01-01T01:51:50;18.50;;;8.20;;
19599;SDS011;9947;57.722;12.012;2023-01-01T01:54:17;20.87;;;8.67;;
19599;SDS011;9947;57.722;12.012;2023-01-01T01:56:55;20.70;;;8.50;;
19599;SDS011;9947;57.722;12.012;2023-01-01T01:59:32;21.77;;;8.33;;
19599;SDS011;9947;57.722;12.012;2023-01-01T02:02:03;19.77;;;8.10;;
19599;SDS011;9947;57.722;12.012;2023-01-01T02:04:46;19.87;;;8.03;;
19599;SDS011;9947;57.722;12.012;2023-01-01T02:07:21;21.13;;;8.00;;
19599;SDS011;9947;57.722;12.012;2023-01-01T02:09:57;23.57;;;8.07;;
19599;SDS011;9947;57.722;12.012;2023-01-01T02:12:25;26.10;;;8.13;;
19599;SDS011;9947;57.722;12.012;2023-01-01T02:14:59;22.97;;;8.17;;
19599;SDS011;9947;57.722;12.012;2023-01-01T02:17:27;21.43;;;7.87;;
19599;SDS011;9947;57.722;12.012;2023-01-01T02:20:10;23.90;;;7.93;;
19599;SDS011;9947;57.722;12.012;2023-01-01T02:22:55;17.97;;;7.30;;
19599;SDS011;9947;57.722;12.012;2023-01-01T02:25:44;26.73;;;7.80;;
19599;SDS011;9947;57.722;12.012;2023-01-01T02:28:36;18.00;;;7.90;;
19599;SDS011;9947;57.722;12.012;2023-01-01T02:31:15;24.20;;;7.50;;
19599;SDS011;9947;57.722;12.012;2023-01-01T02:33:54;13.10;;;6.53;;
19599;SDS011;9947;57.722;12.012;2023-01-01T02:36:26;24.00;;;7.93;;
19599;SDS011;9947;57.722;12.012;2023-01-01T02:39:04;17.53;;;7.40;;
19599;SDS011;9947;57.722;12.012;2023-01-01T02:41:35;20.93;;;8.17;;
19599;SDS011;9947;57.722;12.012;2023-01-01T02:44:12;17.73;;;7.00;;
19599;SDS011;9947;57.722;12.012;2023-01-01T02:46:40;15.70;;;6.17;;
19599;SDS011;9947;57.722;12.012;2023-01-01T02:49:14;15.43;;;6.80;;
19599;SDS011;9947;57.722;12.012;2023-01-01T02:51:44;20.70;;;6.90;;
19599;SDS011;9947;57.722;12.012;2023-01-01T02:54:34;17.53;;;6.57;;
19599;SDS011;9947;57.722;12.012;2023-01-01T02:57:08;21.50;;;7.10;;
19599;SDS011;9947;57.722;12.012;2023-01-01T02:59:57;14.20;;;6.53;;
19599;SDS011;9947;57.722;12.012;2023-01-01T03:02:46;17.90;;;6.00;;
19599;SDS011;9947;57.722;12.012;2023-01-01T03:05:24;16.67;;;5.80;;
19599;SDS011;9947;57.722;12.012;2023-01-01T03:08:24;14.63;;;5.57;;
19599;SDS011;9947;57.722;12.012;2023-01-01T03:11:06;15.67;;;5.40;;
19599;SDS011;9947;57.722;12.012;2023-01-01T03:13:38;17.13;;;6.33;;
19599;SDS011;9947;57.722;12.012;2023-01-01T03:16:17;16.67;;;6.00;;
19599;SDS011;9947;57.722;12.012;2023-01-01T03:18:57;16.03;;;5.90;;
19599;SDS011;9947;57.722;12.012;2023-01-01T03:21:40;17.27;;;5.93;;
19599;SDS011;9947;57.722;12.012;2023-01-01T03:24:17;16.07;;;4.97;;
19599;SDS011;9947;57.722;12.012;2023-01-01T03:26:49;12.67;;;5.37;;
19599;SDS011;9947;57.722;12.012;2023-01-01T03:29:27;13.70;;;5.00;;
19599;SDS011;9947;57.722;12.012;2023-01-01T03:31:58;11.80;;;6.10;;
19599;SDS011;9947;57.722;12.012;2023-01-01T03:34:37;9.87;;;5.17;;
19599;SDS011;9947;57.722;12.012;2023-01-01T03:37:18;11.50;;;5.43;;
19599;SDS011;9947;57.722;12.012;2023-01-01T03:40:00;14.07;;;4.90;;
19599;SDS011;9947;57.722;12.012;2023-01-01T03:42:35;13.63;;;4.93;;
19599;SDS011;9947;57.722;12.012;2023-01-01T03:45:12;15.27;;;5.47;;
19599;SDS011;9947;57.722;12.012;2023-01-01T03:47:46;18.47;;;5.07;;
19599;SDS011;9947;57.722;12.012;2023-01-01T03:50:20;14.03;;;4.70;;
19599;SDS011;9947;57.722;12.012;2023-01-01T03:52:54;10.63;;;3.93;;
19599;SDS011;9947;57.722;12.012;2023-01-01T03:55:36;14.20;;;4.73;;
19599;SDS011;9947;57.722;12.012;2023-01-01T03:58:17;14.90;;;4.70;;
19599;SDS011;9947;57.722;12.012;2023-01-01T04:00:51;14.17;;;4.50;;
19599;SDS011;9947;57.722;12.012;2023-01-01T04:03:30;11.73;;;4.23;;
19599;SDS011;9947;57.722;12.012;2023-01-01T04:06:07;14.13;;;5.07;;
19599;SDS011;9947;57.722;12.012;2023-01-01T04:08:42;12.40;;;4.83;;
19599;SDS011;9947;57.722;12.012;2023-01-01T04:11:18;11.70;;;4.03;;
19599;SDS011;9947;57.722;12.012;2023-01-01T04:14:24;13.17;;;3.87;;
19599;SDS011;9947;57.722;12.012;2023-01-01T04:16:52;9.40;;;3.90;;
19599;SDS011;9947;57.722;12.012;2023-01-01T04:19:26;10.93;;;3.70;;
19599;SDS011;9947;57.722;12.012;2023-01-01T04:21:54;8.63;;;3.40;;
19599;SDS011;9947;57.722;12.012;2023-01-01T04:24:27;11.83;;;3.57;;
19599;SDS011;9947;57.722;12.012;2023-01-01T04:26:54;8.53;;;3.57;;
19599;SDS011;9947;57.722;12.012;2023-01-01T04:29:28;9.73;;;3.47;;
19599;SDS011;9947;57.722;12.012;2023-01-01T04:31:55;10.17;;;3.37;;
19599;SDS011;9947;57.722;12.012;2023-01-01T04:34:29;10.33;;;3.37;;
19599;SDS011;9947;57.722;12.012;2023-01-01T04:36:56;11.07;;;3.70;;
19599;SDS011;9947;57.722;12.012;2023-01-01T04:39:37;9.17;;;3.67;;
19599;SDS011;9947;57.722;12.012;2023-01-01T04:42:10;7.60;;;3.20;;
19599;SDS011;9947;57.722;12.012;2023-01-01T04:44:43;10.10;;;3.20;;
19599;SDS011;9947;57.722;12.012;2023-01-01T04:47:17;10.40;;;4.23;;
19599;SDS011;9947;57.722;12.012;2023-01-01T04:49:52;11.83;;;3.00;;
19599;SDS011;9947;57.722;12.012;2023-01-01T04:52:26;9.97;;;2.90;;
19599;SDS011;9947;57.722;12.012;2023-01-01T04:54:59;8.70;;;3.33;;
19599;SDS011;9947;57.722;12.012;2023-01-01T04:57:27;5.20;;;2.80;;
19599;SDS011;9947;57.722;12.012;2023-01-01T05:00:01;5.17;;;2.10;;
19599;SDS011;9947;57.722;12.012;2023-01-01T05:02:28;11.30;;;3.00;;
19599;SDS011;9947;57.722;12.012;2023-01-01T05:05:03;3.33;;;2.50;;
19599;SDS011;9947;57.722;12.012;2023-01-01T05:07:31;8.20;;;2.50;;
19599;SDS011;9947;57.722;12.012;2023-01-01T05:10:05;6.73;;;2.50;;
19599;SDS011;9947;57.722;12.012;2023-01-01T05:12:32;12.33;;;2.43;;
19599;SDS011;9947;57.722;12.012;2023-01-01T05:15:06;7.27;;;2.70;;
19599;SDS011;9947;57.722;12.012;2023-01-01T05:17:34;10.23;;;3.30;;
19599;SDS011;9947;57.722;12.012;2023-01-01T05:20:15;9.40;;;2.97;;
19599;SDS011;9947;57.722;12.012;2023-01-01T05:22:49;7.50;;;2.70;;
19599;SDS011;9947;57.722;12.012;2023-01-01T05:25:16;7.77;;;3.10;;
19599;SDS011;9947;57.722;12.012;2023-01-01T05:27:56;8.80;;;3.27;;
19599;SDS011;9947;57.722;12.012;2023-01-01T05:30:23;8.13;;;3.17;;
19599;SDS011;9947;57.722;12.012;2023-01-01T05:32:56;12.37;;;3.57;;
19599;SDS011;9947;57.722;12.012;2023-01-01T05:35:37;12.57;;;4.77;;
19599;SDS011;9947;57.722;12.012;2023-01-01T05:38:04;7.97;;;3.30;;
19599;SDS011;9947;57.722;12.012;2023-01-01T05:40:44;8.13;;;3.63;;
19599;SDS011;9947;57.722;12.012;2023-01-01T05:43:10;11.20;;;3.73;;
19599;SDS011;9947;57.722;12.012;2023-01-01T05:45:44;10.13;;;3.97;;
19599;SDS011;9947;57.722;12.012;2023-01-01T05:48:17;6.03;;;3.20;;
19599;SDS011;9947;57.722;12.012;2023-01-01T05:50:45;7.80;;;3.70;;
19599;SDS011;9947;57.722;12.012;2023-01-01T05:53:19;8.90;;;3.53;;
19599;SDS011;9947;57.722;12.012;2023-01-01T05:55:51;10.90;;;3.77;;
19599;SDS011;9947;57.722;12.012;2023-01-01T05:58:25;8.20;;;3.60;;
19599;SDS011;9947;57.722;12.012;2023-01-01T06:00:53;5.83;;;3.20;;
19599;SDS011;9947;57.722;12.012;2023-01-01T06:03:27;6.00;;;2.90;;
19599;SDS011;9947;57.722;12.012;2023-01-01T06:05:55;7.30;;;2.53;;
19599;SDS011;9947;57.722;12.012;2023-01-01T06:08:29;9.37;;;3.20;;
19599;SDS011;9947;57.722;12.012;2023-01-01T06:11:03;7.47;;;2.93;;
19599;SDS011;9947;57.722;12.012;2023-01-01T06:13:38;6.70;;;2.70;;
19599;SDS011;9947;57.722;12.012;2023-01-01T06:16:05;4.70;;;2.37;;
19599;SDS011;9947;57.722;12.012;2023-01-01T06:18:39;9.73;;;2.60;;
19599;SDS011;9947;57.722;12.012;2023-01-01T06:21:15;8.57;;;2.57;;
19599;SDS011;9947;57.722;12.012;2023-01-01T06:23:50;6.43;;;2.30;;
19599;SDS011;9947;57.722;12.012;2023-01-01T06:26:18;9.20;;;2.80;;
19599;SDS011;9947;57.722;12.012;2023-01-01T06:28:52;8.57;;;2.60;;
19599;SDS011;9947;57.722;12.012;2023-01-01T06:31:21;7.20;;;2.80;;
19599;SDS011;9947;57.722;12.012;2023-01-01T06:33:54;9.03;;;2.53;;
19599;SDS011;9947;57.722;12.012;2023-01-01T06:36:23;6.63;;;2.50;;
19599;SDS011;9947;57.722;12.012;2023-01-01T06:38:57;4.07;;;2.40;;
19599;SDS011;9947;57.722;12.012;2023-01-01T06:41:25;3.33;;;2.47;;
19599;SDS011;9947;57.722;12.012;2023-01-01T06:43:59;6.60;;;2.57;;
19599;SDS011;9947;57.722;12.012;2023-01-01T06:46:27;5.43;;;2.50;;
19599;SDS011;9947;57.722;12.012;2023-01-01T06:49:02;5.83;;;2.30;;
19599;SDS011;9947;57.722;12.012;2023-01-01T06:51:32;3.43;;;2.30;;
19599;SDS011;9947;57.722;12.012;2023-01-01T06:54:08;6.37;;;2.60;;
19599;SDS011;9947;57.722;12.012;2023-01-01T06:56:36;6.47;;;2.40;;
19599;SDS011;9947;57.722;12.012;2023-01-01T06:59:09;7.77;;;2.47;;
19599;SDS011;9947;57.722;12.012;2023-01-01T07:01:37;3.07;;;1.73;;
19599;SDS011;9947;57.722;12.012;2023-01-01T07:04:12;2.77;;;1.80;;
19599;SDS011;9947;57.722;12.012;2023-01-01T07:06:55;6.73;;;2.10;;
19599;SDS011;9947;57.722;12.012;2023-01-01T07:09:29;3.80;;;1.93;;
19599;SDS011;9947;57.722;12.012;2023-01-01T07:11:56;2.77;;;2.07;;
19599;SDS011;9947;57.722;12.012;2023-01-01T07:14:29;6.93;;;2.17;;
19599;SDS011;9947;57.722;12.012;2023-01-01T07:16:56;5.07;;;2.03;;
19599;SDS011;9947;57.722;12.012;2023-01-01T07:19:29;5.47;;;2.40;;
19599;SDS011;9947;57.722;12.012;2023-01-01T07:21:57;10.70;;;2.37;;
19599;SDS011;9947;57.722;12.012;2023-01-01T07:24:31;5.30;;;2.20;;
19599;SDS011;9947;57.722;12.012;2023-01-01T07:26:58;9.17;;;2.47;;
19599;SDS011;9947;57.722;12.012;2023-01-01T07:29:31;4.80;;;2.20;;
19599;SDS011;9947;57.722;12.012;2023-01-01T07:31:58;5.40;;;2.07;;
19599;SDS011;9947;57.722;12.012;2023-01-01T07:34:39;6.23;;;2.97;;
19599;SDS011;9947;57.722;12.012;2023-01-01T07:37:07;5.00;;;2.20;;
19599;SDS011;9947;57.722;12.012;2023-01-01T07:39:40;6.70;;;2.27;;
19599;SDS011;9947;57.722;12.012;2023-01-01T07:42:07;2.23;;;1.83;;
19599;SDS011;9947;57.722;12.012;2023-01-01T07:44:40;6.90;;;2.10;;
19599;SDS011;9947;57.722;12.012;2023-01-01T07:47:08;4.57;;;2.27;;
19599;SDS011;9947;57.722;12.012;2023-01-01T07:49:50;5.47;;;2.07;;
19599;SDS011;9947;57.722;12.012;2023-01-01T07:52:19;5.97;;;1.80;;
19599;SDS011;9947;57.722;12.012;2023-01-01T07:54:53;5.33;;;2.00;;
19599;SDS011;9947;57.722;12.012;2023-01-01T07:57:26;2.40;;;2.20;;
19599;SDS011;9947;57.722;12.012;2023-01-01T07:59:59;5.07;;;2.20;;
19599;SDS011;9947;57.722;12.012;2023-01-01T08:02:26;4.57;;;2.40;;
19599;SDS011;9947;57.722;12.012;2023-01-01T08:05:02;3.30;;;2.10;;
19599;SDS011;9947;57.722;12.012;2023-01-01T08:07:31;5.73;;;2.20;;
19599;SDS011;9947;57.722;12.012;2023-01-01T08:10:05;4.70;;;2.00;;
19599;SDS011;9947;57.722;12.012;2023-01-01T08:12:32;2.67;;;1.90;;
19599;SDS011;9947;57.722;12.012;2023-01-01T08:15:07;6.53;;;2.60;;
19599;SDS011;9947;57.722;12.012;2023-01-01T08:17:41;7.87;;;2.50;;
19599;SDS011;9947;57.722;12.012;2023-01-01T08:20:09;3.80;;;2.33;;
19599;SDS011;9947;57.722;12.012;2023-01-01T08:22:43;5.17;;;2.47;;
19599;SDS011;9947;57.722;12.012;2023-01-01T08:25:17;2.60;;;1.90;;
19599;SDS011;9947;57.722;12.012;2023-01-01T08:27:50;3.83;;;2.30;;
19599;SDS011;9947;57.722;12.012;2023-01-01T08:30:23;7.27;;;2.17;;
19599;SDS011;9947;57.722;12.012;2023-01-01T08:32:50;2.73;;;1.90;;
19599;SDS011;9947;57.722;12.012;2023-01-01T08:35:24;7.63;;;2.60;;
19599;SDS011;9947;57.722;12.012;2023-01-01T08:37:52;6.20;;;2.47;;
19599;SDS011;9947;57.722;12.012;2023-01-01T08:40:26;6.77;;;2.13;;
19599;SDS011;9947;57.722;12.012;2023-01-01T08:42:53;6.33;;;2.47;;
19599;SDS011;9947;57.722;12.012;2023-01-01T08:45:26;4.90;;;2.27;;
19599;SDS011;9947;57.722;12.012;2023-01-01T08:48:00;2.57;;;2.00;;
19599;SDS011;9947;57.722;12.012;2023-01-01T08:50:33;8.80;;;2.40;;
19599;SDS011;9947;57.722;12.012;2023-01-01T08:53:01;3.77;;;2.33;;
19599;SDS011;9947;57.722;12.012;2023-01-01T08:55:35;4.57;;;2.10;;
19599;SDS011;9947;57.722;12.012;2023-01-01T08:58:08;6.47;;;2.40;;
19599;SDS011;9947;57.722;12.012;2023-01-01T09:00:41;5.97;;;1.97;;
19599;SDS011;9947;57.722;12.012;2023-01-01T09:03:08;6.03;;;2.40;;
19599;SDS011;9947;57.722;12.012;2023-01-01T09:05:41;4.87;;;2.33;;
19599;SDS011;9947;57.722;12.012;2023-01-01T09:08:16;4.07;;;2.00;;
19599;SDS011;9947;57.722;12.012;2023-01-01T09:10:43;4.30;;;2.10;;
19599;SDS011;9947;57.722;12.012;2023-01-01T09:13:17;7.70;;;2.13;;
19599;SDS011;9947;57.722;12.012;2023-01-01T09:15:46;6.17;;;2.40;;
19599;SDS011;9947;57.722;12.012;2023-01-01T09:18:19;8.40;;;2.43;;
19599;SDS011;9947;57.722;12.012;2023-01-01T09:20:46;3.83;;;2.00;;
19599;SDS011;9947;57.722;12.012;2023-01-01T09:23:27;4.27;;;2.57;;
19599;SDS011;9947;57.722;12.012;2023-01-01T09:26:01;3.33;;;2.50;;
19599;SDS011;9947;57.722;12.012;2023-01-01T09:28:35;6.40;;;2.97;;
19599;SDS011;9947;57.722;12.012;2023-01-01T09:31:02;3.93;;;2.30;;
19599;SDS011;9947;57.722;12.012;2023-01-01T09:33:36;6.13;;;2.43;;
19599;SDS011;9947;57.722;12.012;2023-01-01T09:36:10;3.30;;;2.10;;
19599;SDS011;9947;57.722;12.012;2023-01-01T09:38:48;3.47;;;2.10;;
19599;SDS011;9947;57.722;12.012;2023-01-01T09:41:18;3.83;;;2.07;;
19599;SDS011;9947;57.722;12.012;2023-01-01T09:44:02;4.10;;;2.10;;
19599;SDS011;9947;57.722;12.012;2023-01-01T09:46:41;5.47;;;2.27;;
19599;SDS011;9947;57.722;12.012;2023-01-01T09:49:15;5.30;;;2.07;;
19599;SDS011;9947;57.722;12.012;2023-01-01T09:51:47;4.73;;;2.00;;
19599;SDS011;9947;57.722;12.012;2023-01-01T09:54:31;3.30;;;1.80;;
19599;SDS011;9947;57.722;12.012;2023-01-01T09:57:04;3.17;;;2.10;;
19599;SDS011;9947;57.722;12.012;2023-01-01T09:59:46;2.07;;;1.63;;
19599;SDS011;9947;57.722;12.012;2023-01-01T10:02:18;3.03;;;1.90;;
19599;SDS011;9947;57.722;12.012;2023-01-01T10:05:14;2.37;;;2.13;;
19599;SDS011;9947;57.722;12.012;2023-01-01T10:07:59;6.70;;;2.67;;
19599;SDS011;9947;57.722;12.012;2023-01-01T10:10:34;3.13;;;2.00;;
19599;SDS011;9947;57.722;12.012;2023-01-01T10:13:16;3.00;;;1.97;;
19599;SDS011;9947;57.722;12.012;2023-01-01T10:15:56;6.37;;;1.83;;
19599;SDS011;9947;57.722;12.012;2023-01-01T10:18:33;3.03;;;2.13;;
19599;SDS011;9947;57.722;12.012;2023-01-01T10:21:04;3.17;;;2.10;;
19599;SDS011;9947;57.722;12.012;2023-01-01T10:23:42;3.70;;;2.10;;
19599;SDS011;9947;57.722;12.012;2023-01-01T10:26:26;5.17;;;1.80;;
19599;SDS011;9947;57.722;12.012;2023-01-01T10:29:03;3.13;;;1.83;;
19599;SDS011;9947;57.722;12.012;2023-01-01T10:31:46;4.20;;;2.10;;
19599;SDS011;9947;57.722;12.012;2023-01-01T10:34:21;2.33;;;1.80;;
19599;SDS011;9947;57.722;12.012;2023-01-01T10:36:58;7.17;;;1.90;;
19599;SDS011;9947;57.722;12.012;2023-01-01T10:39:32;6.23;;;2.27;;
19599;SDS011;9947;57.722;12.012;2023-01-01T10:42:02;2.63;;;2.00;;
19599;SDS011;9947;57.722;12.012;2023-01-01T10:44:36;6.40;;;2.27;;
19599;SDS011;9947;57.722;12.012;2023-01-01T10:47:06;7.50;;;2.20;;
19599;SDS011;9947;57.722;12.012;2023-01-01T10:49:55;2.37;;;1.83;;
19599;SDS011;9947;57.722;12.012;2023-01-01T10:52:33;4.07;;;2.03;;
19599;SDS011;9947;57.722;12.012;2023-01-01T10:55:17;4.03;;;2.30;;
19599;SDS011;9947;57.722;12.012;2023-01-01T10:57:53;5.60;;;2.00;;
19599;SDS011;9947;57.722;12.012;2023-01-01T11:00:27;5.93;;;2.37;;
19599;SDS011;9947;57.722;12.012;2023-01-01T11:03:09;4.50;;;1.70;;
19599;SDS011;9947;57.722;12.012;2023-01-01T11:05:48;2.40;;;2.00;;
19599;SDS011;9947;57.722;12.012;2023-01-01T11:08:34;5.83;;;2.00;;
19599;SDS011;9947;57.722;12.012;2023-01-01T11:11:02;4.47;;;1.80;;
19599;SDS011;9947;57.722;12.012;2023-01-01T11:13:38;5.10;;;2.20;;
19599;SDS011;9947;57.722;12.012;2023-01-01T11:16:12;5.83;;;1.70;;
19599;SDS011;9947;57.722;12.012;2023-01-01T11:18:45;2.13;;;1.77;;
19599;SDS011;9947;57.722;12.012;2023-01-01T11:21:18;2.67;;;1.93;;
19599;SDS011;9947;57.722;12.012;2023-01-01T11:24:08;2.20;;;2.00;;
19599;SDS011;9947;57.722;12.012;2023-01-01T11:26:49;4.83;;;1.87;;
19599;SDS011;9947;57.722;12.012;2023-01-01T11:29:26;2.63;;;1.80;;
19599;SDS011;9947;57.722;12.012;2023-01-01T11:31:56;2.53;;;1.60;;
19599;SDS011;9947;57.722;12.012;2023-01-01T11:34:31;3.83;;;2.07;;
19599;SDS011;9947;57.722;12.012;2023-01-01T11:37:06;1.80;;;1.70;;
19599;SDS011;9947;57.722;12.012;2023-01-01T11:39:49;3.40;;;2.03;;
19599;SDS011;9947;57.722;12.012;2023-01-01T11:42:25;2.10;;;2.00;;
19599;SDS011;9947;57.722;12.012;2023-01-01T11:44:55;1.90;;;1.50;;
19599;SDS011;9947;57.722;12.012;2023-01-01T11:47:32;2.30;;;1.80;;
19599;SDS011;9947;57.722;12.012;2023-01-01T11:50:16;3.67;;;2.10;;
19599;SDS011;9947;57.722;12.012;2023-01-01T11:53:16;2.10;;;1.90;;
19599;SDS011;9947;57.722;12.012;2023-01-01T11:55:46;1.80;;;1.70;;
19599;SDS011;9947;57.722;12.012;2023-01-01T11:58:24;1.67;;;1.57;;
19599;SDS011;9947;57.722;12.012;2023-01-01T12:00:58;2.30;;;2.00;;
19599;SDS011;9947;57.722;12.012;2023-01-01T12:03:37;1.90;;;1.80;;
19599;SDS011;9947;57.722;12.012;2023-01-01T12:06:21;3.87;;;1.80;;
19599;SDS011;9947;57.722;12.012;2023-01-01T12:09:01;1.60;;;1.50;;
19599;SDS011;9947;57.722;12.012;2023-01-01T12:11:35;1.80;;;1.70;;
19599;SDS011;9947;57.722;12.012;2023-01-01T12:14:16;2.50;;;1.60;;
19599;SDS011;9947;57.722;12.012;2023-01-01T12:16:57;3.17;;;2.00;;
19599;SDS011;9947;57.722;12.012;2023-01-01T12:19:27;3.07;;;1.80;;
19599;SDS011;9947;57.722;12.012;2023-01-01T12:22:07;2.60;;;1.70;;
19599;SDS011;9947;57.722;12.012;2023-01-01T12:24:46;1.83;;;1.73;;
19599;SDS011;9947;57.722;12.012;2023-01-01T12:27:26;1.80;;;1.70;;
19599;SDS011;9947;57.722;12.012;2023-01-01T12:30:11;1.83;;;1.73;;
19599;SDS011;9947;57.722;12.012;2023-01-01T12:32:52;4.03;;;2.40;;
19599;SDS011;9947;57.722;12.012;2023-01-01T12:35:43;3.67;;;2.20;;
19599;SDS011;9947;57.722;12.012;2023-01-01T12:38:21;3.97;;;2.60;;
19599;SDS011;9947;57.722;12.012;2023-01-01T12:41:07;2.60;;;1.93;;
19599;SDS011;9947;57.722;12.012;2023-01-01T12:43:54;2.00;;;1.90;;
19599;SDS011;9947;57.722;12.012;2023-01-01T12:46:34;2.00;;;1.90;;
19599;SDS011;9947;57.722;12.012;2023-01-01T12:52:31;2.47;;;2.23;;
19599;SDS011;9947;57.722;12.012;2023-01-01T12:58:36;5.80;;;2.30;;
19599;SDS011;9947;57.722;12.012;2023-01-01T13:01:08;2.47;;;2.00;;
19599;SDS011;9947;57.722;12.012;2023-01-01T13:03:46;2.33;;;2.10;;
19599;SDS011;9947;57.722;12.012;2023-01-01T13:06:18;3.03;;;1.90;;
19599;SDS011;9947;57.722;12.012;2023-01-01T13:08:58;3.33;;;2.20;;
19599;SDS011;9947;57.722;12.012;2023-01-01T13:11:38;3.33;;;2.30;;
19599;SDS011;9947;57.722;12.012;2023-01-01T13:14:13;2.37;;;2.17;;
19599;SDS011;9947;57.722;12.012;2023-01-01T13:16:41;2.17;;;1.80;;
19599;SDS011;9947;57.722;12.012;2023-01-01T13:19:23;2.97;;;2.30;;
19599;SDS011;9947;57.722;12.012;2023-01-01T13:21:53;3.63;;;2.23;;
19599;SDS011;9947;57.722;12.012;2023-01-01T13:24:34;3.43;;;2.37;;
19599;SDS011;9947;57.722;12.012;2023-01-01T13:27:01;3.00;;;2.00;;
19599;SDS011;9947;57.722;12.012;2023-01-01T13:29:37;2.50;;;1.90;;
19599;SDS011;9947;57.722;12.012;2023-01-01T13:32:16;2.10;;;1.90;;
19599;SDS011;9947;57.722;12.012;2023-01-01T13:34:59;2.37;;;2.20;;
19599;SDS011;9947;57.722;12.012;2023-01-01T13:43:19;2.70;;;2.50;;
19599;SDS011;9947;57.722;12.012;2023-01-01T13:45:58;5.07;;;2.00;;
19599;SDS011;9947;57.722;12.012;2023-01-01T13:55:23;2.53;;;1.80;;
19599;SDS011;9947;57.722;12.012;2023-01-01T14:01:36;1.80;;;1.70;;
19599;SDS011;9947;57.722;12.012;2023-01-01T14:04:28;2.73;;;1.97;;
19599;SDS011;9947;57.722;12.012;2023-01-01T14:07:11;5.83;;;2.33;;
19599;SDS011;9947;57.722;12.012;2023-01-01T14:09:52;2.10;;;1.90;;
19599;SDS011;9947;57.722;12.012;2023-01-01T14:12:45;2.30;;;2.10;;
19599;SDS011;9947;57.722;12.012;2023-01-01T14:15:22;2.13;;;2.00;;
19599;SDS011;9947;57.722;12.012;2023-01-01T14:17:58;2.97;;;1.97;;
19599;SDS011;9947;57.722;12.012;2023-01-01T14:20:29;2.40;;;2.10;;
19599;SDS011;9947;57.722;12.012;2023-01-01T14:23:08;2.80;;;2.60;;
19599;SDS011;9947;57.722;12.012;2023-01-01T14:25:37;4.00;;;2.50;;
19599;SDS011;9947;57.722;12.012;2023-01-01T14:28:17;2.80;;;2.30;;
19599;SDS011;9947;57.722;12.012;2023-01-01T14:30:54;2.43;;;2.20;;
19599;SDS011;9947;57.722;12.012;2023-01-01T14:33:31;2.97;;;2.30;;
19599;SDS011;9947;57.722;12.012;2023-01-01T14:36:12;2.47;;;2.27;;
19599;SDS011;9947;57.722;12.012;2023-01-01T14:38:42;5.80;;;2.30;;
19599;SDS011;9947;57.722;12.012;2023-01-01T14:41:19;3.00;;;2.40;;
19599;SDS011;9947;57.722;12.012;2023-01-01T14:44:03;3.37;;;3.03;;
19599;SDS011;9947;57.722;12.012;2023-01-01T14:46:39;2.77;;;2.20;;
19599;SDS011;9947;57.722;12.012;2023-01-01T14:49:14;2.50;;;2.30;;
19599;SDS011;9947;57.722;12.012;2023-01-01T14:51:44;2.50;;;2.20;;
19599;SDS011;9947;57.722;12.012;2023-01-01T14:54:24;2.20;;;2.00;;
19599;SDS011;9947;57.722;12.012;2023-01-01T14:56:56;3.87;;;2.70;;
19599;SDS011;9947;57.722;12.012;2023-01-01T14:59:33;2.43;;;2.20;;
19599;SDS011;9947;57.722;12.012;2023-01-01T15:02:00;4.17;;;2.40;;
19599;SDS011;9947;57.722;12.012;2023-01-01T15:04:35;2.63;;;2.20;;
19599;SDS011;9947;57.722;12.012;2023-01-01T15:07:02;4.00;;;2.50;;
19599;SDS011;9947;57.722;12.012;2023-01-01T15:09:36;2.87;;;2.40;;
19599;SDS011;9947;57.722;12.012;2023-01-01T15:12:03;2.17;;;2.07;;
19599;SDS011;9947;57.722;12.012;2023-01-01T15:14:46;2.53;;;2.33;;
19599;SDS011;9947;57.722;12.012;2023-01-01T15:17:22;3.27;;;2.60;;
19599;SDS011;9947;57.722;12.012;2023-01-01T15:20:00;2.90;;;2.60;;
19599;SDS011;9947;57.722;12.012;2023-01-01T15:22:36;3.17;;;2.60;;
19599;SDS011;9947;57.722;12.012;2023-01-01T15:25:04;3.80;;;2.77;;
19599;SDS011;9947;57.722;12.012;2023-01-01T15:27:46;3.03;;;2.50;;
19599;SDS011;9947;57.722;12.012;2023-01-01T15:30:25;3.20;;;2.90;;
19599;SDS011;9947;57.722;12.012;2023-01-01T15:33:06;3.10;;;2.67;;
19599;SDS011;9947;57.722;12.012;2023-01-01T15:35:35;2.80;;;2.60;;
19599;SDS011;9947;57.722;12.012;2023-01-01T15:38:09;4.00;;;2.90;;
19599;SDS011;9947;57.722;12.012;2023-01-01T15:40:49;4.73;;;3.00;;
19599;SDS011;9947;57.722;12.012;2023-01-01T15:43:22;2.73;;;2.53;;
19599;SDS011;9947;57.722;12.012;2023-01-01T15:45:53;3.77;;;2.30;;
19599;SDS011;9947;57.722;12.012;2023-01-01T15:48:29;4.13;;;2.57;;
19599;SDS011;9947;57.722;12.012;2023-01-01T15:51:12;4.50;;;2.90;;
19599;SDS011;9947;57.722;12.012;2023-01-01T15:54:00;2.83;;;2.60;;